Time;durP1;ratioP1;P1;durP2;ratioP2;P2;SDS_P1;SDS_P2;PMS_P1;PMS_P2;Temp;Humidity;BMP_temperature;BMP_pressure;BME280_temperature;BME280_humidity;BME280_pressure;Samples;Min_cycle;Max_cycle;Signal;HPM_P1;HPM_P2
2021/11/07 00:01:37;;;;;;;1.15;1.08;;;7.10;99.90;;;;;;5050853;28;20192;-78
2021/11/07 00:07:14;;;;;;;0.10;0.10;;;7.10;99.90;;;;;;5067290;28;20195;-79
2021/11/07 00:09:39;;;;;;;0.20;0.20;;;7.10;99.90;;;;;;5066939;28;20672;-79
2021/11/07 00:12:18;;;;;;;0.00;0.00;;;7.10;99.90;;;;;;5067553;28;20204;-80
2021/11/07 00:14:49;;;;;;;1.17;1.17;;;7.10;99.90;;;;;;5067808;28;20156;-78
2021/11/07 00:17:18;;;;;;;0.08;0.08;;;7.10;99.90;;;;;;5067814;28;20198;-78
2021/11/07 00:19:50;;;;;;;0.10;0.10;;;7.20;99.90;;;;;;5067679;28;20180;-79
2021/11/07 00:22:25;;;;;;;0.40;0.40;;;7.20;99.90;;;;;;5067380;28;20198;-79
2021/11/07 00:24:59;;;;;;;0.40;0.40;;;7.20;99.90;;;;;;5067428;28;20172;-80
2021/11/07 00:27:31;;;;;;;0.70;0.70;;;7.10;99.90;;;;;;5050589;28;20169;-80
2021/11/07 00:37:57;;;;;;;0.15;0.15;;;7.20;99.90;;;;;;5068816;28;20191;-79
2021/11/07 00:48:11;;;;;;;1.65;1.23;;;7.20;99.90;;;;;;5069280;28;20202;-77
2021/11/07 00:50:51;;;;;;;0.40;0.40;;;7.30;99.90;;;;;;5069185;28;20168;-77
2021/11/07 00:58:43;;;;;;;0.70;0.70;;;7.10;99.90;;;;;;5069290;28;20208;-76
2021/11/07 01:01:13;;;;;;;2.05;1.95;;;7.10;99.90;;;;;;5067718;28;20188;-77
2021/11/07 01:03:40;;;;;;;0.10;0.10;;;7.10;99.90;;;;;;5067914;28;20161;-77
2021/11/07 01:06:06;;;;;;;0.38;0.38;;;7.10;99.90;;;;;;5067838;28;20164;-77
2021/11/07 01:08:32;;;;;;;0.20;0.20;;;7.10;99.90;;;;;;5069239;28;20176;-77
2021/11/07 01:10:58;;;;;;;0.08;0.08;;;7.10;99.90;;;;;;5068931;28;20303;-74
2021/11/07 01:13:26;;;;;;;0.20;0.20;;;7.10;99.90;;;;;;5067781;28;20200;-75
2021/11/07 01:15:52;;;;;;;0.65;0.65;;;7.10;99.90;;;;;;5067590;28;20194;-75
2021/11/07 01:18:19;;;;;;;0.73;0.73;;;7.10;99.90;;;;;;5068885;28;20533;-75
2021/11/07 01:20:44;;;;;;;1.90;1.75;;;7.10;99.90;;;;;;5064810;28;20567;-75
2021/11/07 01:23:22;;;;;;;0.73;0.73;;;7.10;99.90;;;;;;5068813;28;20271;-76
2021/11/07 01:25:57;;;;;;;0.47;0.47;;;7.00;99.90;;;;;;5060112;28;20172;-80
2021/11/07 01:28:24;;;;;;;1.75;1.55;;;7.00;99.90;;;;;;5068653;28;20203;-80
2021/11/07 01:30:53;;;;;;;0.20;0.20;;;6.90;99.90;;;;;;5067412;28;20173;-80
2021/11/07 01:33:24;;;;;;;0.60;0.60;;;6.90;99.90;;;;;;5067327;28;20200;-80
2021/11/07 01:36:36;;;;;;;0.55;0.55;;;7.00;99.90;;;;;;5068761;28;20260;-80
2021/11/07 01:38:44;;;;;;;0.22;0.22;;;7.00;99.90;;;;;;5068184;28;20172;-80
2021/11/07 01:41:26;;;;;;;1.10;1.08;;;7.00;99.90;;;;;;5067291;28;20184;-80
2021/11/07 01:43:55;;;;;;;0.20;0.20;;;7.00;99.90;;;;;;5067308;28;20165;-79
2021/11/07 01:49:13;;;;;;;0.47;0.47;;;7.10;99.90;;;;;;5069191;28;20183;-79
2021/11/07 01:51:48;;;;;;;9.75;3.70;;;7.10;99.90;;;;;;5072484;28;20197;-80
2021/11/07 01:54:27;;;;;;;0.13;0.13;;;7.00;99.90;;;;;;5072439;28;20207;-80
2021/11/07 01:56:53;;;;;;;0.43;0.43;;;6.90;99.90;;;;;;5071200;28;20248;-80
2021/11/07 01:59:19;;;;;;;0.47;0.47;;;6.90;99.90;;;;;;5072604;28;20163;-80
2021/11/07 02:01:56;;;;;;;0.30;0.30;;;6.90;99.90;;;;;;5071086;28;20275;-80
2021/11/07 02:04:21;;;;;;;0.40;0.40;;;6.90;99.90;;;;;;5071172;28;20168;-79
2021/11/07 02:06:48;;;;;;;0.47;0.47;;;6.90;99.90;;;;;;5072300;28;20251;-79
2021/11/07 02:09:14;;;;;;;0.00;0.00;;;6.90;99.90;;;;;;5072356;28;20164;-79
2021/11/07 02:11:41;;;;;;;0.10;0.10;;;6.90;99.90;;;;;;5070837;28;20202;-79
2021/11/07 02:14:09;;;;;;;0.28;0.28;;;6.90;99.90;;;;;;5072032;28;20227;-80
2021/11/07 02:16:36;;;;;;;1.67;1.58;;;6.90;99.90;;;;;;5072008;28;20563;-79
2021/11/07 02:19:03;;;;;;;0.57;0.57;;;6.90;99.90;;;;;;5070694;28;20165;-79
2021/11/07 02:21:29;;;;;;;0.10;0.10;;;6.90;99.90;;;;;;5070567;28;20205;-78
2021/11/07 02:23:55;;;;;;;4.47;2.28;;;7.00;99.90;;;;;;5070674;28;20172;-79
2021/11/07 02:26:21;;;;;;;6.22;2.65;;;6.90;99.90;;;;;;5060105;28;20169;-79
2021/11/07 02:28:48;;;;;;;1.25;1.25;;;6.90;99.90;;;;;;5069255;28;20184;-79
2021/11/07 02:31:18;;;;;;;0.82;0.82;;;6.90;99.90;;;;;;5070315;28;20173;-80
2021/11/07 02:33:45;;;;;;;0.20;0.20;;;6.90;99.90;;;;;;5071732;28;20164;-79
2021/11/07 02:36:17;;;;;;;0.20;0.20;;;6.90;99.90;;;;;;5070338;28;20192;-79
2021/11/07 02:38:44;;;;;;;0.68;0.68;;;6.80;99.90;;;;;;5070325;28;20237;-81
2021/11/07 02:41:10;;;;;;;0.52;0.52;;;6.80;99.90;;;;;;5071561;28;20176;-80
2021/11/07 02:43:48;;;;;;;0.88;0.88;;;6.70;99.90;;;;;;5070323;28;20639;-81
2021/11/07 02:46:16;;;;;;;1.55;1.17;;;6.80;99.90;;;;;;5071581;28;20164;-81
2021/11/07 02:48:49;;;;;;;0.75;0.70;;;6.80;99.90;;;;;;5071552;28;20196;-81
2021/11/07 02:51:16;;;;;;;0.63;0.63;;;6.80;99.90;;;;;;5070173;28;20192;-81
2021/11/07 02:53:42;;;;;;;0.10;0.10;;;6.90;99.90;;;;;;5068917;28;20203;-80
2021/11/07 02:56:09;;;;;;;0.40;0.40;;;6.90;99.90;;;;;;5049674;28;20709;-80
2021/11/07 02:58:35;;;;;;;0.82;0.82;;;6.90;99.90;;;;;;5051315;28;20169;-80
2021/11/07 03:01:03;;;;;;;0.30;0.30;;;6.90;99.90;;;;;;5049187;28;20195;-80
2021/11/07 03:03:29;;;;;;;0.65;0.65;;;6.90;99.90;;;;;;5051159;28;20162;-81
2021/11/07 03:05:55;;;;;;;0.75;0.75;;;6.90;99.90;;;;;;5051110;28;20189;-80
2021/11/07 03:08:21;;;;;;;0.10;0.10;;;6.90;99.90;;;;;;5051115;28;20228;-81
2021/11/07 03:10:48;;;;;;;2.50;0.90;;;6.90;99.90;;;;;;5051091;28;20300;-81
2021/11/07 03:13:15;;;;;;;0.63;0.60;;;7.00;99.90;;;;;;5066643;28;20231;-78
2021/11/07 03:15:42;;;;;;;0.68;0.68;;;6.90;99.90;;;;;;5070951;28;20196;-79
2021/11/07 03:18:12;;;;;;;0.20;0.20;;;6.90;99.90;;;;;;5069534;28;20188;-78
2021/11/07 03:20:39;;;;;;;1.60;1.60;;;6.90;99.90;;;;;;5070931;28;20232;-80
2021/11/07 03:23:06;;;;;;;1.13;1.02;;;6.90;99.90;;;;;;5070839;28;20189;-81
2021/11/07 03:25:33;;;;;;;0.15;0.15;;;6.90;99.90;;;;;;5069523;28;20184;-81
2021/11/07 03:27:59;;;;;;;1.73;1.42;;;6.80;99.90;;;;;;5070841;28;20539;-81
2021/11/07 03:33:27;;;;;;;0.00;0.00;;;6.80;99.90;;;;;;5070759;28;20251;-81
2021/11/07 03:35:54;;;;;;;0.25;0.25;;;6.80;99.90;;;;;;5070548;28;20188;-81
2021/11/07 03:38:21;;;;;;;0.20;0.20;;;6.70;99.90;;;;;;5069285;28;20172;-81
2021/11/07 03:40:47;;;;;;;0.38;0.38;;;6.70;99.90;;;;;;5070574;28;20156;-81
2021/11/07 03:43:13;;;;;;;2.92;1.00;;;6.70;99.90;;;;;;5069107;28;20196;-81
2021/11/07 03:45:39;;;;;;;0.30;0.30;;;6.70;99.90;;;;;;5069201;28;20233;-81
2021/11/07 03:48:06;;;;;;;0.65;0.65;;;6.60;99.90;;;;;;5069360;28;20176;-81
2021/11/07 03:50:33;;;;;;;0.20;0.20;;;6.60;99.90;;;;;;5070209;28;20176;-80
2021/11/07 03:52:59;;;;;;;0.47;0.47;;;6.60;99.90;;;;;;5070016;28;20195;-80
2021/11/07 03:55:26;;;;;;;1.95;1.85;;;6.60;99.90;;;;;;5068585;28;20232;-80
2021/11/07 03:57:53;;;;;;;0.47;0.47;;;6.50;99.90;;;;;;5068881;28;20646;-80
2021/11/07 04:00:21;;;;;;;1.60;0.95;;;6.40;99.90;;;;;;5069906;28;20206;-80
2021/11/07 04:02:48;;;;;;;0.63;0.63;;;6.40;99.90;;;;;;5069963;28;20626;-80
2021/11/07 04:05:14;;;;;;;0.52;0.52;;;6.30;99.90;;;;;;5070038;28;20184;-80
2021/11/07 04:07:41;;;;;;;0.20;0.20;;;6.30;99.90;;;;;;5069949;28;20533;-80
2021/11/07 04:10:11;;;;;;;0.15;0.15;;;6.20;99.90;;;;;;5069851;28;20157;-80
2021/11/07 04:12:37;;;;;;;1.77;1.67;;;6.20;99.90;;;;;;5068697;28;20256;-80
2021/11/07 04:15:05;;;;;;;0.75;0.75;;;6.20;99.90;;;;;;5069897;28;20161;-81
2021/11/07 04:17:31;;;;;;;2.83;1.63;;;6.20;99.90;;;;;;5068204;28;20203;-80
2021/11/07 04:19:57;;;;;;;0.63;0.63;;;6.10;99.90;;;;;;5069607;28;20157;-80
2021/11/07 04:22:23;;;;;;;0.15;0.15;;;6.00;99.90;;;;;;5069608;28;20529;-80
2021/11/07 04:24:49;;;;;;;0.50;0.50;;;6.00;99.90;;;;;;5068217;28;20533;-80
2021/11/07 04:27:15;;;;;;;0.65;0.65;;;5.90;99.90;;;;;;5068244;28;20177;-80
2021/11/07 04:29:41;;;;;;;0.90;0.40;;;5.90;99.90;;;;;;5068197;28;20173;-80
2021/11/07 04:32:07;;;;;;;0.55;0.55;;;5.90;99.90;;;;;;5069439;28;20188;-78
2021/11/07 04:34:33;;;;;;;0.47;0.47;;;5.80;99.90;;;;;;5069492;28;20487;-79
2021/11/07 04:36:59;;;;;;;0.10;0.10;;;5.80;99.90;;;;;;5068089;28;20196;-79
2021/11/07 04:39:26;;;;;;;0.10;0.10;;;5.80;99.90;;;;;;5067972;28;20176;-79
2021/11/07 04:41:52;;;;;;;0.75;0.75;;;5.80;99.90;;;;;;5069226;28;20189;-78
2021/11/07 04:44:18;;;;;;;0.95;0.95;;;5.80;99.90;;;;;;5069430;28;20157;-78
2021/11/07 04:46:45;;;;;;;0.20;0.20;;;5.80;99.90;;;;;;5069159;28;20175;-79
2021/11/07 04:49:11;;;;;;;0.10;0.10;;;5.80;99.90;;;;;;5067947;28;20172;-78
2021/11/07 04:51:37;;;;;;;0.35;0.35;;;5.80;99.90;;;;;;5067733;28;20203;-78
2021/11/07 04:54:03;;;;;;;0.22;0.22;;;5.80;99.90;;;;;;5067576;28;20183;-78
2021/11/07 04:56:30;;;;;;;0.20;0.20;;;5.80;99.90;;;;;;5067750;28;20204;-78
2021/11/07 04:58:57;;;;;;;0.20;0.20;;;5.70;99.90;;;;;;5067781;28;20240;-78
2021/11/07 05:01:23;;;;;;;0.55;0.55;;;5.70;99.90;;;;;;5067749;28;20164;-78
2021/11/07 05:03:49;;;;;;;0.10;0.10;;;5.60;99.90;;;;;;5067707;28;20165;-78
2021/11/07 05:06:15;;;;;;;0.20;0.20;;;5.50;99.90;;;;;;5067748;28;20745;-80
2021/11/07 05:08:41;;;;;;;0.10;0.10;;;5.50;99.90;;;;;;5067628;28;20182;-79
2021/11/07 05:11:07;;;;;;;0.10;0.10;;;5.50;99.90;;;;;;5068877;28;20161;-79
2021/11/07 05:13:33;;;;;;;3.35;3.05;;;5.50;99.90;;;;;;5067493;28;20253;-78
2021/11/07 05:15:59;;;;;;;0.38;0.38;;;5.50;99.90;;;;;;5068977;28;20185;-78
2021/11/07 05:18:25;;;;;;;0.38;0.38;;;5.50;99.90;;;;;;5068679;28;20206;-78
2021/11/07 05:20:51;;;;;;;0.00;0.00;;;5.50;99.90;;;;;;5067731;28;20175;-78
2021/11/07 05:23:17;;;;;;;0.10;0.10;;;5.50;99.90;;;;;;5067452;28;20661;-78
2021/11/07 05:25:43;;;;;;;0.10;0.10;;;5.50;99.90;;;;;;5072702;28;20167;-78
2021/11/07 05:28:10;;;;;;;0.20;0.20;;;5.50;99.90;;;;;;5072979;28;20180;-79
2021/11/07 05:30:36;;;;;;;0.10;0.10;;;5.40;99.90;;;;;;5071571;28;20240;-78
2021/11/07 05:33:03;;;;;;;0.82;0.80;;;5.40;99.90;;;;;;5072884;28;20196;-78
2021/11/07 05:35:29;;;;;;;0.08;0.08;;;5.30;99.90;;;;;;5071406;28;20176;-78
2021/11/07 05:37:55;;;;;;;1.55;1.55;;;5.30;99.90;;;;;;5071504;28;20165;-78
2021/11/07 05:40:21;;;;;;;1.83;1.73;;;5.30;99.90;;;;;;5071314;28;20169;-79
2021/11/07 05:42:48;;;;;;;0.10;0.10;;;5.30;99.90;;;;;;5071356;28;20250;-79
2021/11/07 05:45:16;;;;;;;0.30;0.30;;;5.30;99.90;;;;;;5071689;28;20169;-79
2021/11/07 05:47:43;;;;;;;0.40;0.40;;;5.30;99.90;;;;;;5071475;28;20499;-79
2021/11/07 05:50:09;;;;;;;0.20;0.20;;;5.40;99.90;;;;;;5072747;28;20184;-80
2021/11/07 05:52:35;;;;;;;0.22;0.22;;;5.30;99.90;;;;;;5071337;28;20200;-80
2021/11/07 05:55:02;;;;;;;0.13;0.13;;;5.30;99.90;;;;;;5072463;28;20246;-80
2021/11/07 05:57:28;;;;;;;0.32;0.32;;;5.30;99.90;;;;;;5072522;28;20224;-80
2021/11/07 05:59:54;;;;;;;0.52;0.40;;;5.40;99.90;;;;;;5071332;28;20195;-80
2021/11/07 06:02:20;;;;;;;0.17;0.17;;;5.40;99.90;;;;;;5071147;28;20192;-80
2021/11/07 06:04:46;;;;;;;0.90;0.90;;;5.40;99.90;;;;;;5072511;28;20165;-79
2021/11/07 06:07:13;;;;;;;0.20;0.20;;;5.30;99.90;;;;;;5072480;28;20164;-80
2021/11/07 06:09:39;;;;;;;0.20;0.20;;;5.30;99.90;;;;;;5071084;28;20211;-78
2021/11/07 06:12:06;;;;;;;0.08;0.08;;;5.30;99.90;;;;;;5070991;28;20196;-78
2021/11/07 06:14:32;;;;;;;0.10;0.10;;;5.40;99.90;;;;;;5072259;28;20165;-81
2021/11/07 06:16:57;;;;;;;0.10;0.10;;;5.30;99.90;;;;;;5072190;28;20271;-82
2021/11/07 06:19:23;;;;;;;0.20;0.20;;;5.30;99.90;;;;;;5070871;28;20529;-81
2021/11/07 06:21:51;;;;;;;0.45;0.45;;;5.30;99.90;;;;;;5072141;28;20246;-81
2021/11/07 06:24:24;;;;;;;0.40;0.40;;;5.30;99.90;;;;;;5070802;28;20171;-81
2021/11/07 06:26:50;;;;;;;2.78;2.50;;;5.30;99.90;;;;;;5072087;28;20178;-81
2021/11/07 06:29:17;;;;;;;0.17;0.17;;;5.40;99.90;;;;;;5072041;28;20165;-77
2021/11/07 06:31:43;;;;;;;0.68;0.68;;;5.40;99.90;;;;;;5070482;28;20204;-78
2021/11/07 06:34:09;;;;;;;3.15;1.88;;;5.30;99.90;;;;;;5070637;28;20180;-79
2021/11/07 06:36:38;;;;;;;1.55;1.45;;;5.30;99.90;;;;;;5070726;28;20566;-79
2021/11/07 06:39:04;;;;;;;0.10;0.10;;;5.30;99.90;;;;;;5071738;28;20575;-79
2021/11/07 06:41:30;;;;;;;0.40;0.40;;;5.20;99.90;;;;;;5070316;28;20192;-79
2021/11/07 06:43:56;;;;;;;0.10;0.10;;;5.20;99.90;;;;;;5070398;28;20192;-81
2021/11/07 06:46:23;;;;;;;0.10;0.10;;;5.30;99.90;;;;;;5057522;28;20236;-81
2021/11/07 06:48:49;;;;;;;0.40;0.40;;;5.30;99.90;;;;;;5064308;28;20192;-81
2021/11/07 06:51:17;;;;;;;0.20;0.20;;;5.30;99.90;;;;;;5070097;28;20176;-81
2021/11/07 06:53:44;;;;;;;0.20;0.20;;;5.30;99.90;;;;;;5062077;28;20188;-81
2021/11/07 06:56:10;;;;;;;0.35;0.35;;;5.40;99.90;;;;;;5050285;28;20225;-81
2021/11/07 06:58:36;;;;;;;0.70;0.70;;;5.50;99.90;;;;;;5051494;28;20161;-80
2021/11/07 07:01:03;;;;;;;0.10;0.10;;;5.60;99.90;;;;;;5051576;28;20248;-81
2021/11/07 07:03:28;;;;;;;0.10;0.10;;;5.60;99.90;;;;;;5050090;28;20193;-81
2021/11/07 07:05:54;;;;;;;0.30;0.30;;;5.80;99.90;;;;;;5055585;28;20204;-81
2021/11/07 07:08:24;;;;;;;0.80;0.80;;;5.90;99.90;;;;;;5051303;28;20188;-81
2021/11/07 07:10:58;;;;;;;0.17;0.17;;;6.00;99.90;;;;;;5050019;28;20204;-81
2021/11/07 07:13:31;;;;;;;0.63;0.63;;;6.10;99.90;;;;;;5049917;28;20227;-81
2021/11/07 07:16:13;;;;;;;0.45;0.45;;;6.30;99.90;;;;;;5051166;28;20268;-81
2021/11/07 07:18:52;;;;;;;0.10;0.10;;;6.30;99.90;;;;;;5051201;28;20248;-81
2021/11/07 07:27:00;;;;;;;0.50;0.47;;;6.80;99.90;;;;;;5051045;28;20158;-81
2021/11/07 07:34:30;;;;;;;0.75;0.75;;;7.00;99.90;;;;;;5054483;28;20212;-79
2021/11/07 07:36:56;;;;;;;0.10;0.10;;;7.20;99.90;;;;;;5049370;28;20549;-81
2021/11/07 07:39:22;;;;;;;0.10;0.10;;;7.30;99.90;;;;;;5050644;28;20161;-81
2021/11/07 07:41:48;;;;;;;0.90;0.88;;;7.10;99.90;;;;;;5049286;28;20196;-81
2021/11/07 07:44:15;;;;;;;0.10;0.10;;;7.20;99.90;;;;;;5050609;28;20169;-80
2021/11/07 07:46:43;;;;;;;1.08;0.98;;;7.20;99.90;;;;;;5049038;28;20255;-81
2021/11/07 07:49:13;;;;;;;0.25;0.25;;;7.50;99.90;;;;;;5049174;28;20185;-80
2021/11/07 07:51:39;;;;;;;0.65;0.55;;;7.90;99.90;;;;;;5050357;28;20193;-81
2021/11/07 07:54:06;;;;;;;0.28;0.28;;;7.90;99.90;;;;;;5050053;28;20280;-79
2021/11/07 07:56:34;;;;;;;0.00;0.00;;;8.10;99.90;;;;;;5050096;28;20197;-79
2021/11/07 07:59:01;;;;;;;1.48;1.20;;;8.80;99.90;;;;;;5049018;28;20166;-79
2021/11/07 08:01:28;;;;;;;0.10;0.10;;;9.60;99.90;;;;;;5056776;28;20568;-80
2021/11/07 08:03:54;;;;;;;1.27;1.27;;;10.50;99.90;;;;;;5065641;28;20172;-79
2021/11/07 08:06:21;;;;;;;0.20;0.20;;;11.30;99.90;;;;;;5048597;28;20226;-79
2021/11/07 08:08:48;;;;;;;0.03;0.03;;;11.80;99.90;;;;;;5057978;28;20172;-79
2021/11/07 08:11:14;;;;;;;0.30;0.30;;;12.40;99.90;;;;;;5068638;28;20173;-79
2021/11/07 08:13:42;;;;;;;0.15;0.15;;;12.50;99.90;;;;;;5068664;28;20164;-79
2021/11/07 08:16:09;;;;;;;0.10;0.05;;;12.20;99.90;;;;;;5069735;28;20184;-79
2021/11/07 08:18:36;;;;;;;0.25;0.25;;;12.70;99.90;;;;;;5049854;28;20165;-80
2021/11/07 08:21:02;;;;;;;0.13;0.13;;;13.10;99.90;;;;;;5048483;28;20168;-80
2021/11/07 08:23:28;;;;;;;0.63;0.63;;;13.80;99.90;;;;;;5049613;28;20612;-80
2021/11/07 08:25:55;;;;;;;0.43;0.43;;;14.20;99.90;;;;;;5066345;28;20168;-79
2021/11/07 08:28:22;;;;;;;1.27;0.65;;;14.70;99.90;;;;;;5063133;28;20173;-79
2021/11/07 08:30:56;;;;;;;0.10;0.10;;;15.20;99.90;;;;;;5061517;28;20170;-79
2021/11/07 08:33:22;;;;;;;0.10;0.10;;;13.60;99.90;;;;;;5064276;28;20196;-80
2021/11/07 08:35:48;;;;;;;0.00;0.00;;;11.50;99.90;;;;;;5062698;28;20188;-79
2021/11/07 08:38:27;;;;;;;0.10;0.10;;;10.60;99.90;;;;;;5049631;28;20150;-79
2021/11/07 08:40:56;;;;;;;0.00;0.00;;;10.40;99.90;;;;;;5049575;28;20165;-78
2021/11/07 09:02:32;;;;;;;0.10;0.10;;;15.30;99.90;;;;;;5069044;28;20223;-77
2021/11/07 09:05:07;;;;;;;0.10;0.10;;;15.80;99.90;;;;;;5069088;28;20160;-76
2021/11/07 09:10:24;;;;;;;1.38;0.63;;;15.10;99.90;;;;;;5048211;28;20216;-77
2021/11/07 09:12:51;;;;;;;0.10;0.10;;;14.10;99.90;;;;;;5072598;28;20203;-74
2021/11/07 09:15:20;;;;;;;0.25;0.25;;;14.10;99.90;;;;;;5079269;28;20157;-76
2021/11/07 09:17:47;;;;;;;0.22;0.22;;;14.50;99.90;;;;;;5075310;28;20172;-76
2021/11/07 09:20:20;;;;;;;0.63;0.15;;;15.10;99.90;;;;;;5074297;28;20190;-77
2021/11/07 09:25:29;;;;;;;0.20;0.20;;;15.90;99.90;;;;;;5065632;28;20261;-75
2021/11/07 09:39:07;;;;;;;0.10;0.10;;;12.60;99.90;;;;;;5066549;28;20593;-77
2021/11/07 09:46:49;;;;;;;0.20;0.20;;;12.70;99.90;;;;;;5063032;28;20181;-77
2021/11/07 09:51:41;;;;;;;0.25;0.25;;;12.80;99.90;;;;;;5062409;28;20188;-77
2021/11/07 09:54:08;;;;;;;0.90;0.70;;;13.10;99.90;;;;;;5062627;28;20216;-77
2021/11/07 09:56:34;;;;;;;0.00;0.00;;;13.50;99.90;;;;;;5063713;28;20220;-77
2021/11/07 09:59:00;;;;;;;0.32;0.25;;;13.50;99.90;;;;;;5063233;28;20165;-76
2021/11/07 10:01:29;;;;;;;0.28;0.28;;;13.50;99.90;;;;;;5078130;28;20203;-78
2021/11/07 10:03:57;;;;;;;0.30;0.30;;;13.40;99.90;;;;;;5070548;28;20169;-78
2021/11/07 10:06:43;;;;;;;0.35;0.35;;;13.90;99.90;;;;;;5067051;28;20189;-77
2021/11/07 10:09:11;;;;;;;0.20;0.20;;;13.30;99.90;;;;;;5054411;28;20233;-78
2021/11/07 10:12:05;;;;;;;0.35;0.35;;;13.50;99.90;;;;;;5052266;28;20196;-76
2021/11/07 10:14:58;;;;;;;2.25;0.57;;;14.00;99.90;;;;;;5051891;28;20305;-77
2021/11/07 10:17:32;;;;;;;0.20;0.20;;;14.90;99.90;;;;;;5052391;28;20260;-77
2021/11/07 10:20:25;;;;;;;0.32;0.32;;;15.20;99.90;;;;;;5052450;28;20168;-77
2021/11/07 10:22:57;;;;;;;0.20;0.20;;;16.20;99.90;;;;;;5051796;28;20197;-77
2021/11/07 10:25:40;;;;;;;2.53;1.65;;;17.70;99.90;;;;;;5052896;28;20165;-78
2021/11/07 10:29:09;;;;;;;0.88;0.88;;;18.40;99.90;;;;;;5052806;28;20168;-78
2021/11/07 10:42:46;;;;;;;0.98;0.50;;;17.20;99.90;;;;;;5061365;28;20243;-79
2021/11/07 10:45:23;;;;;;;0.32;0.32;;;17.80;99.90;;;;;;5051535;28;20169;-79
2021/11/07 10:53:27;;;;;;;0.63;0.63;;;17.80;99.90;;;;;;5051622;28;20223;-79
2021/11/07 10:55:57;;;;;;;0.30;0.30;;;18.70;99.90;;;;;;5051701;28;20242;-78
2021/11/07 10:58:31;;;;;;;0.03;0.03;;;19.20;99.90;;;;;;5051393;28;20187;-80
2021/11/07 11:01:02;;;;;;;0.95;0.80;;;18.80;99.90;;;;;;5055330;28;20701;-80
2021/11/07 11:03:28;;;;;;;0.20;0.20;;;18.10;99.90;;;;;;5049809;28;20707;-80
2021/11/07 11:08:45;;;;;;;0.10;0.10;;;17.00;99.90;;;;;;5059844;28;20173;-80
2021/11/07 11:11:25;;;;;;;0.47;0.47;;;15.60;99.90;;;;;;5071135;28;20149;-80
2021/11/07 11:14:17;;;;;;;1.83;1.00;;;15.50;99.90;;;;;;5069653;28;20247;-82
2021/11/07 11:16:54;;;;;;;0.20;0.20;;;14.90;99.90;;;;;;5069553;28;20200;-77
2021/11/07 11:25:35;;;;;;;0.35;0.35;;;14.60;99.90;;;;;;5070925;28;20179;-76
2021/11/07 11:35:48;;;;;;;0.20;0.20;;;12.90;99.90;;;;;;5070475;28;20216;-75
2021/11/07 11:38:24;;;;;;;0.05;0.05;;;13.10;99.90;;;;;;5069514;28;20168;-78
2021/11/07 11:43:21;;;;;;;1.33;0.95;;;13.30;99.90;;;;;;5070333;28;20188;-77
2021/11/07 11:45:56;;;;;;;0.10;0.10;;;13.90;99.90;;;;;;5070362;28;20157;-76
2021/11/07 12:00:52;;;;;;;0.10;0.10;;;14.20;99.90;;;;;;5069746;28;20195;-78
2021/11/07 12:12:09;;;;;;;0.20;0.20;;;15.10;99.90;;;;;;5069770;28;20198;-75
2021/11/07 12:18:00;;;;;;;0.15;0.15;;;13.50;99.90;;;;;;5067581;28;20330;-75
2021/11/07 12:20:30;;;;;;;0.00;0.00;;;13.70;99.90;;;;;;5050844;28;20168;-74
2021/11/07 12:23:17;;;;;;;0.28;0.20;;;13.20;99.90;;;;;;5050657;28;20212;-74
2021/11/07 12:25:44;;;;;;;0.10;0.10;;;12.50;99.90;;;;;;5067533;28;20576;-75
2021/11/07 12:28:12;;;;;;;0.20;0.20;;;12.20;99.90;;;;;;5050332;28;21316;-75
2021/11/07 12:30:40;;;;;;;0.38;0.38;;;12.20;99.90;;;;;;5065788;28;20303;-74
2021/11/07 12:33:20;;;;;;;0.10;0.10;;;12.40;99.90;;;;;;5049916;28;20204;-73
2021/11/07 12:36:05;;;;;;;0.00;0.00;;;12.50;99.90;;;;;;5050269;28;20195;-73
2021/11/07 12:41:23;;;;;;;0.10;0.10;;;11.70;99.90;;;;;;5067101;28;20256;-73
2021/11/07 12:43:50;;;;;;;0.55;0.55;;;11.80;99.90;;;;;;5066730;28;20172;-73
2021/11/07 12:46:42;;;;;;;0.80;0.80;;;11.70;99.90;;;;;;5067006;28;20196;-73
2021/11/07 12:49:14;;;;;;;0.10;0.10;;;11.80;99.90;;;;;;5063899;28;20216;-73
2021/11/07 12:51:47;;;;;;;0.50;0.50;;;12.00;99.90;;;;;;5069132;28;20220;-72
2021/11/07 12:54:16;;;;;;;0.43;0.43;;;12.10;99.90;;;;;;5068909;28;20712;-72
2021/11/07 12:57:06;;;;;;;0.20;0.20;;;12.30;99.90;;;;;;5068869;28;20316;-72
2021/11/07 12:59:50;;;;;;;0.45;0.45;;;12.10;99.90;;;;;;5068905;28;20164;-71
2021/11/07 13:02:29;;;;;;;0.08;0.08;;;11.90;99.90;;;;;;5068785;28;20200;-72
2021/11/07 13:05:25;;;;;;;0.17;0.17;;;12.00;99.90;;;;;;5067695;28;20223;-72
2021/11/07 13:11:04;;;;;;;0.30;0.30;;;11.80;99.90;;;;;;5068689;28;20633;-72
2021/11/07 13:18:47;;;;;;;0.00;0.00;;;11.50;99.90;;;;;;5067999;28;20180;-72
2021/11/07 13:26:48;;;;;;;0.60;0.60;;;11.90;99.90;;;;;;5069006;28;20167;-73
2021/11/07 13:34:27;;;;;;;0.57;0.45;;;11.90;99.90;;;;;;5069100;28;20190;-71
2021/11/07 13:36:55;;;;;;;0.28;0.28;;;11.80;99.90;;;;;;5067256;28;20196;-72
2021/11/07 13:39:27;;;;;;;0.90;0.90;;;11.70;99.90;;;;;;5067414;28;20223;-72
2021/11/07 13:42:08;;;;;;;0.10;0.10;;;11.50;99.90;;;;;;5068744;28;20258;-72
2021/11/07 13:44:56;;;;;;;0.15;0.15;;;11.50;99.90;;;;;;5067341;28;20256;-72
2021/11/07 13:47:43;;;;;;;0.05;0.05;;;11.40;99.90;;;;;;5072738;28;20168;-72
2021/11/07 13:50:16;;;;;;;0.10;0.10;;;11.40;99.90;;;;;;5071346;28;20263;-72
2021/11/07 13:52:43;;;;;;;0.00;0.00;;;11.40;99.90;;;;;;5071178;28;20196;-72
2021/11/07 13:55:20;;;;;;;0.20;0.20;;;11.40;99.90;;;;;;5072380;28;20227;-72
2021/11/07 13:57:47;;;;;;;10.85;1.02;;;11.40;99.90;;;;;;5071120;28;20687;-72
2021/11/07 14:00:19;;;;;;;0.22;0.22;;;11.40;99.90;;;;;;5072234;28;20157;-78
2021/11/07 14:02:48;;;;;;;0.10;0.10;;;11.40;99.90;;;;;;5070932;28;20624;-76
2021/11/07 14:05:14;;;;;;;0.10;0.10;;;11.40;99.90;;;;;;5072404;28;20153;-77
2021/11/07 14:07:40;;;;;;;0.10;0.10;;;11.40;99.90;;;;;;5072151;28;20157;-76
2021/11/07 14:10:12;;;;;;;0.10;0.10;;;11.50;99.90;;;;;;5072089;28;20200;-74
2021/11/07 14:12:54;;;;;;;0.10;0.10;;;11.50;99.90;;;;;;5072279;28;20160;-73
2021/11/07 14:15:36;;;;;;;0.10;0.10;;;11.40;99.90;;;;;;5072591;28;20164;-78
2021/11/07 14:18:17;;;;;;;0.10;0.10;;;11.40;99.90;;;;;;5070758;28;20236;-77
2021/11/07 14:20:51;;;;;;;1.27;1.08;;;11.30;99.90;;;;;;5070655;28;20195;-77
2021/11/07 14:23:23;;;;;;;0.10;0.10;;;11.30;99.90;;;;;;5072283;28;20161;-72
2021/11/07 14:26:09;;;;;;;0.00;0.00;;;11.30;99.90;;;;;;5072225;28;20153;-72
2021/11/07 14:29:15;;;;;;;0.10;0.10;;;11.30;99.90;;;;;;5070926;28;20219;-72
2021/11/07 14:32:07;;;;;;;0.20;0.20;;;11.10;99.90;;;;;;5070582;28;20210;-72
2021/11/07 14:44:54;;;;;;;0.20;0.20;;;11.00;99.90;;;;;;5071589;28;20161;-77
2021/11/07 14:50:29;;;;;;;0.55;0.55;;;10.90;99.90;;;;;;5071556;28;20189;-77
2021/11/07 14:53:04;;;;;;;0.25;0.25;;;10.90;99.90;;;;;;5070387;28;20164;-77
2021/11/07 14:55:44;;;;;;;0.70;0.70;;;10.90;99.90;;;;;;5071638;28;20220;-77
2021/11/07 14:59:00;;;;;;;0.30;0.30;;;10.90;99.90;;;;;;5070908;28;20227;-77
2021/11/07 15:07:01;;;;;;;0.10;0.10;;;10.70;99.90;;;;;;5074713;28;20184;-76
2021/11/07 15:09:43;;;;;;;0.10;0.10;;;10.70;99.90;;;;;;5069797;28;20199;-77
2021/11/07 15:12:27;;;;;;;0.10;0.10;;;10.60;99.90;;;;;;5071287;28;20149;-76
2021/11/07 15:15:33;;;;;;;0.35;0.35;;;10.60;99.90;;;;;;5070543;28;20537;-77
2021/11/07 15:18:20;;;;;;;0.65;0.65;;;10.50;99.90;;;;;;5069690;28;20239;-77
2021/11/07 15:20:57;;;;;;;0.38;0.38;;;10.50;99.90;;;;;;5069940;28;20199;-77
2021/11/07 15:23:39;;;;;;;0.20;0.20;;;10.40;99.90;;;;;;5070855;28;20187;-77
2021/11/07 15:26:21;;;;;;;0.55;0.55;;;10.30;99.90;;;;;;5068451;28;20416;-77
2021/11/07 15:28:57;;;;;;;0.10;0.10;;;10.30;99.90;;;;;;5070629;28;20188;-72
2021/11/07 15:31:26;;;;;;;0.40;0.40;;;10.20;99.90;;;;;;5068657;28;20416;-72
2021/11/07 15:33:52;;;;;;;0.10;0.10;;;10.20;99.90;;;;;;5070763;28;20183;-72
2021/11/07 15:36:47;;;;;;;1.05;0.95;;;10.10;99.90;;;;;;5070469;28;20192;-72
2021/11/07 15:39:17;;;;;;;0.10;0.10;;;10.00;99.90;;;;;;5051441;28;20200;-72
2021/11/07 15:42:04;;;;;;;0.52;0.52;;;9.90;99.90;;;;;;5068429;28;20171;-72
2021/11/07 15:44:39;;;;;;;0.10;0.10;;;9.80;99.90;;;;;;5034694;28;20192;-72
2021/11/07 15:47:06;;;;;;;0.10;0.10;;;9.60;99.90;;;;;;5051643;28;20168;-73
2021/11/07 15:49:37;;;;;;;0.10;0.10;;;9.50;99.90;;;;;;5051508;28;20231;-72
2021/11/07 15:52:50;;;;;;;0.10;0.10;;;9.30;99.90;;;;;;5051541;28;20642;-72
2021/11/07 15:55:02;;;;;;;0.25;0.25;;;9.20;99.90;;;;;;5043481;28;20285;-72
2021/11/07 15:57:37;;;;;;;0.10;0.10;;;9.00;99.90;;;;;;5048367;28;20291;-77
2021/11/07 16:02:42;;;;;;;0.80;0.80;;;8.80;99.90;;;;;;5067849;28;20201;-78
2021/11/07 16:08:35;;;;;;;0.10;0.10;;;8.60;99.90;;;;;;5067645;28;20161;-78
2021/11/07 16:10:32;;;;;;;0.45;0.45;;;8.60;99.90;;;;;;5060244;28;20187;-78
2021/11/07 16:13:09;;;;;;;0.15;0.15;;;8.60;99.90;;;;;;5051014;28;20199;-77
2021/11/07 16:15:54;;;;;;;0.25;0.20;;;8.50;99.90;;;;;;5048153;28;20271;-78
2021/11/07 16:18:22;;;;;;;0.10;0.10;;;8.40;99.90;;;;;;5048606;28;20193;-77
2021/11/07 16:20:49;;;;;;;0.55;0.20;;;8.30;99.90;;;;;;5049703;28;20173;-78
2021/11/07 16:23:15;;;;;;;0.55;0.55;;;8.20;99.90;;;;;;5048370;28;20176;-78